Time,TemperatureF,DewpointF,PressureIn,WindDirection,WindDirectionDegrees,WindSpeedMPH,WindSpeedGustMPH,Humidity,HourlyPrecipIn,Conditions,Clouds,dailyrainin,SoftwareType,DateUTC
2013-04-05 00:00:00,36.0,21.8,29.94,South,170,0.0,0.0,56,0.00,,,0.00,Wunderground v.1.15,2013-04-05 04:00:00,
2013-04-05 00:05:00,35.8,21.6,29.94,South,170,0.0,0.0,56,0.00,,,0.00,Wunderground v.1.15,2013-04-05 04:05:00,
2013-04-05 00:15:00,35.2,21.9,29.94,South,170,0.0,0.0,58,0.00,,,0.00,Wunderground v.1.15,2013-04-05 04:15:00,
2013-04-05 00:25:00,34.7,21.4,29.93,South,170,0.0,0.0,58,0.00,,,0.00,Wunderground v.1.15,2013-04-05 04:25:00,
2013-04-05 00:30:00,34.6,21.7,29.93,South,170,0.0,0.0,59,0.00,,,0.00,Wunderground v.1.15,2013-04-05 04:30:00,
2013-04-05 00:40:00,34.3,21.0,29.93,South,170,0.0,0.0,58,0.00,,,0.00,Wunderground v.1.15,2013-04-05 04:40:00,
2013-04-05 00:45:00,34.1,21.3,29.93,South,170,0.0,0.0,59,0.00,,,0.00,Wunderground v.1.15,2013-04-05 04:45:00,
2013-04-05 00:55:00,33.7,21.3,29.93,South,170,0.0,0.0,60,0.00,,,0.00,Wunderground v.1.15,2013-04-05 04:55:00,
2013-04-05 01:00:00,33.5,21.5,29.93,South,170,0.0,0.0,61,0.00,,,0.00,Wunderground v.1.15,2013-04-05 05:00:00,
2013-04-05 01:10:00,33.2,22.3,29.93,South,170,0.0,0.0,64,0.00,,,0.00,Wunderground v.1.15,2013-04-05 05:10:00,
2013-04-05 01:15:00,33.1,21.5,29.93,South,170,0.0,0.0,62,0.00,,,0.00,Wunderground v.1.15,2013-04-05 05:15:00,
2013-04-05 01:25:00,32.9,22.0,29.92,South,170,0.0,0.0,64,0.00,,,0.00,Wunderground v.1.15,2013-04-05 05:25:00,
2013-04-05 01:30:00,33.1,21.9,29.92,South,170,0.0,0.0,63,0.00,,,0.00,Wunderground v.1.15,2013-04-05 05:30:00,
2013-04-05 01:40:00,32.9,22.0,29.92,South,170,0.0,0.0,64,0.00,,,0.00,Wunderground v.1.15,2013-04-05 05:40:00,
2013-04-05 01:45:00,32.7,21.9,29.92,South,170,0.0,0.0,64,0.00,,,0.00,Wunderground v.1.15,2013-04-05 05:45:00,
2013-04-05 01:55:00,32.2,21.7,29.92,South,170,0.0,0.0,65,0.00,,,0.00,Wunderground v.1.15,2013-04-05 05:55:00,
2013-04-05 02:00:00,31.8,21.7,29.92,South,170,0.0,0.0,66,0.00,,,0.00,Wunderground v.1.15,2013-04-05 06:00:00,
2013-04-05 02:10:00,31.2,21.2,29.92,South,170,0.0,0.0,66,0.00,,,0.00,Wunderground v.1.15,2013-04-05 06:10:00,
2013-04-05 02:15:00,30.7,20.7,29.92,South,170,0.0,0.0,66,0.00,,,0.00,Wunderground v.1.15,2013-04-05 06:15:00,
2013-04-05 02:25:00,30.3,20.6,29.92,South,170,0.0,0.0,67,0.00,,,0.00,Wunderground v.1.15,2013-04-05 06:25:00,
2013-04-05 02:30:00,30.0,20.4,29.92,South,170,0.0,0.0,67,0.00,,,0.00,Wunderground v.1.15,2013-04-05 06:30:00,
2013-04-05 02:40:00,29.5,20.2,29.92,South,170,0.0,0.0,68,0.00,,,0.00,Wunderground v.1.15,2013-04-05 06:40:00,
2013-04-05 02:45:00,29.4,20.1,29.92,South,170,0.0,0.0,68,0.00,,,0.00,Wunderground v.1.15,2013-04-05 06:45:00,
2013-04-05 02:55:00,29.1,20.2,29.92,South,170,0.0,0.0,69,0.00,,,0.00,Wunderground v.1.15,2013-04-05 06:55:00,
2013-04-05 03:00:00,29.0,20.1,29.92,South,170,0.0,0.0,69,0.00,,,0.00,Wunderground v.1.15,2013-04-05 07:00:00,
2013-04-05 03:10:00,29.1,20.5,29.92,South,170,0.0,0.0,70,0.00,,,0.00,Wunderground v.1.15,2013-04-05 07:10:00,
2013-04-05 03:15:00,29.1,20.2,29.92,South,170,0.0,0.0,69,0.00,,,0.00,Wunderground v.1.15,2013-04-05 07:15:00,
2013-04-05 03:25:00,29.1,20.9,29.92,South,170,0.0,0.0,71,0.00,,,0.00,Wunderground v.1.15,2013-04-05 07:25:00,
2013-04-05 03:30:00,29.1,21.2,29.92,South,170,0.0,0.0,72,0.00,,,0.00,Wunderground v.1.15,2013-04-05 07:30:00,
2013-04-05 03:40:00,29.1,21.2,29.91,South,170,0.0,0.0,72,0.00,,,0.00,Wunderground v.1.15,2013-04-05 07:40:00,
2013-04-05 03:45:00,29.0,21.4,29.91,South,170,0.0,0.0,73,0.00,,,0.00,Wunderground v.1.15,2013-04-05 07:45:00,
2013-04-05 03:55:00,29.0,21.1,29.91,South,170,0.0,0.0,72,0.00,,,0.00,Wunderground v.1.15,2013-04-05 07:55:00,
2013-04-05 04:00:00,28.8,21.2,29.91,South,170,0.0,0.0,73,0.00,,,0.00,Wunderground v.1.15,2013-04-05 08:00:00,
2013-04-05 04:10:00,28.7,21.1,29.91,South,170,0.0,0.0,73,0.00,,,0.00,Wunderground v.1.15,2013-04-05 08:10:00,
2013-04-05 04:15:00,28.7,21.1,29.91,South,170,0.0,0.0,73,0.00,,,0.00,Wunderground v.1.15,2013-04-05 08:15:00,
2013-04-05 04:25:00,28.7,21.1,29.91,South,170,0.0,0.0,73,0.00,,,0.00,Wunderground v.1.15,2013-04-05 08:25:00,
2013-04-05 04:30:00,28.7,21.5,29.91,South,170,0.0,0.0,74,0.00,,,0.00,Wunderground v.1.15,2013-04-05 08:30:00,
2013-04-05 04:40:00,28.7,21.1,29.91,South,170,0.0,0.0,73,0.00,,,0.00,Wunderground v.1.15,2013-04-05 08:40:00,
2013-04-05 04:45:00,28.7,21.5,29.91,South,170,0.0,0.0,74,0.00,,,0.00,Wunderground v.1.15,2013-04-05 08:45:00,
2013-04-05 04:55:00,28.7,21.5,29.92,South,170,0.0,0.0,74,0.00,,,0.00,Wunderground v.1.15,2013-04-05 08:55:00,
2013-04-05 05:00:00,28.7,21.8,29.92,South,170,0.0,0.0,75,0.00,,,0.00,Wunderground v.1.15,2013-04-05 09:00:00,
2013-04-05 05:10:00,28.5,20.9,29.92,South,170,0.0,0.0,73,0.00,,,0.00,Wunderground v.1.15,2013-04-05 09:10:00,
2013-04-05 05:15:00,28.5,21.3,29.92,South,170,0.0,0.0,74,0.00,,,0.00,Wunderground v.1.15,2013-04-05 09:15:00,
2013-04-05 05:25:00,28.4,21.8,29.92,South,170,0.0,0.0,76,0.00,,,0.00,Wunderground v.1.15,2013-04-05 09:25:00,
2013-04-05 05:30:00,28.2,21.6,29.92,South,170,0.0,0.0,76,0.00,,,0.00,Wunderground v.1.15,2013-04-05 09:30:00,
2013-04-05 05:40:00,28.2,21.6,29.92,South,170,0.0,0.0,76,0.00,,,0.00,Wunderground v.1.15,2013-04-05 09:40:00,
2013-04-05 05:45:00,28.2,21.3,29.92,South,170,0.0,0.0,75,0.00,,,0.00,Wunderground v.1.15,2013-04-05 09:45:00,
2013-04-05 05:55:00,28.5,21.3,29.92,South,170,0.0,0.0,74,0.00,,,0.00,Wunderground v.1.15,2013-04-05 09:55:00,
2013-04-05 06:00:00,28.7,21.5,29.92,South,170,0.0,0.0,74,0.00,,,0.00,Wunderground v.1.15,2013-04-05 10:00:00,
2013-04-05 06:10:00,29.0,21.4,29.93,South,170,0.0,0.0,73,0.00,,,0.00,Wunderground v.1.15,2013-04-05 10:10:00,
2013-04-05 06:15:00,29.0,21.1,29.93,South,170,0.0,0.0,72,0.00,,,0.00,Wunderground v.1.15,2013-04-05 10:15:00,
2013-04-05 06:25:00,29.1,21.2,29.93,South,170,0.0,0.0,72,0.00,,,0.00,Wunderground v.1.15,2013-04-05 10:25:00,
2013-04-05 06:30:00,29.0,21.1,29.93,South,170,0.0,0.0,72,0.00,,,0.00,Wunderground v.1.15,2013-04-05 10:30:00,
2013-04-05 06:40:00,28.8,20.9,29.93,South,170,0.0,0.0,72,0.00,,,0.00,Wunderground v.1.15,2013-04-05 10:40:00,
2013-04-05 06:45:00,28.7,20.8,29.93,South,170,0.0,0.0,72,0.00,,,0.00,Wunderground v.1.15,2013-04-05 10:45:00,
2013-04-05 06:55:00,28.4,20.5,29.93,South,170,0.0,0.0,72,0.00,,,0.00,Wunderground v.1.15,2013-04-05 10:55:00,
2013-04-05 07:00:00,28.2,20.3,29.93,South,170,0.0,0.0,72,0.00,,,0.00,Wunderground v.1.15,2013-04-05 11:00:00,
2013-04-05 07:10:00,28.1,20.6,29.94,South,170,0.0,0.0,73,0.00,,,0.00,Wunderground v.1.15,2013-04-05 11:10:00,
2013-04-05 07:15:00,27.9,20.4,29.94,South,170,0.0,0.0,73,0.00,,,0.00,Wunderground v.1.15,2013-04-05 11:15:00,
2013-04-05 07:25:00,27.9,20.7,29.95,South,170,0.0,0.0,74,0.00,,,0.00,Wunderground v.1.15,2013-04-05 11:25:00,
2013-04-05 07:30:00,27.8,20.6,29.95,South,170,0.0,0.0,74,0.00,,,0.00,Wunderground v.1.15,2013-04-05 11:30:00,
2013-04-05 07:40:00,27.8,20.6,29.95,South,170,0.0,0.0,74,0.00,,,0.00,Wunderground v.1.15,2013-04-05 11:40:00,
2013-04-05 07:45:00,27.8,21.2,29.95,South,170,0.0,0.0,76,0.00,,,0.00,Wunderground v.1.15,2013-04-05 11:45:00,
2013-04-05 07:55:00,27.9,21.3,29.96,South,170,0.0,0.0,76,0.00,,,0.00,Wunderground v.1.15,2013-04-05 11:55:00,
2013-04-05 08:00:00,28.1,21.5,29.96,South,170,0.0,0.0,76,0.00,,,0.00,Wunderground v.1.15,2013-04-05 12:00:00,
2013-04-05 08:10:00,28.4,21.5,29.96,South,170,0.0,0.0,75,0.00,,,0.00,Wunderground v.1.15,2013-04-05 12:10:00,
2013-04-05 08:15:00,28.8,22.5,29.96,South,170,0.0,0.0,77,0.00,,,0.00,Wunderground v.1.15,2013-04-05 12:15:00,
2013-04-05 08:25:00,29.4,21.5,29.96,South,170,0.0,0.0,72,0.00,,,0.00,Wunderground v.1.15,2013-04-05 12:25:00,
2013-04-05 08:30:00,30.1,22.2,29.96,South,170,0.0,0.0,72,0.00,,,0.00,Wunderground v.1.15,2013-04-05 12:30:00,
2013-04-05 08:40:00,31.5,24.2,29.96,South,181,0.0,0.0,74,0.00,,,0.00,Wunderground v.1.15,2013-04-05 12:40:00,
2013-04-05 08:45:00,31.9,23.9,29.96,SE,124,0.0,0.0,72,0.00,,,0.00,Wunderground v.1.15,2013-04-05 12:45:00,
2013-04-05 08:55:00,33.2,23.4,29.97,SE,124,0.0,0.0,67,0.00,,,0.00,Wunderground v.1.15,2013-04-05 12:55:00,
2013-04-05 09:00:00,34.3,24.5,29.97,SE,124,0.0,0.0,67,0.00,,,0.00,Wunderground v.1.15,2013-04-05 13:00:00,
2013-04-05 09:10:00,35.8,24.8,29.98,North,9,0.0,0.0,64,0.00,,,0.00,Wunderground v.1.15,2013-04-05 13:10:00,
2013-04-05 09:15:00,36.5,24.3,29.98,North,9,0.0,0.0,61,0.00,,,0.00,Wunderground v.1.15,2013-04-05 13:15:00,
2013-04-05 09:25:00,37.3,25.1,29.98,North,9,0.0,0.0,61,0.00,,,0.00,Wunderground v.1.15,2013-04-05 13:25:00,
2013-04-05 09:30:00,38.0,24.9,29.98,North,9,0.0,0.0,59,0.00,,,0.00,Wunderground v.1.15,2013-04-05 13:30:00,
2013-04-05 09:40:00,40.6,25.2,29.98,North,360,0.0,2.0,54,0.00,,,0.00,Wunderground v.1.15,2013-04-05 13:40:00,
2013-04-05 09:45:00,41.9,24.6,29.98,NNE,28,0.0,2.0,50,0.00,,,0.00,Wunderground v.1.15,2013-04-05 13:45:00,
2013-04-05 09:55:00,43.5,25.1,29.98,NNE,28,0.0,0.0,48,0.00,,,0.00,Wunderground v.1.15,2013-04-05 13:55:00,
2013-04-05 10:00:00,44.2,23.1,29.98,NNE,19,0.0,0.0,43,0.00,,,0.00,Wunderground v.1.15,2013-04-05 14:00:00,
2013-04-05 10:10:00,45.8,23.4,29.98,NNE,30,0.0,0.0,41,0.00,,,0.00,Wunderground v.1.15,2013-04-05 14:10:00,
2013-04-05 10:15:00,46.7,23.6,29.98,NE,35,0.0,1.0,40,0.00,,,0.00,Wunderground v.1.15,2013-04-05 14:15:00,
2013-04-05 10:25:00,48.3,23.2,29.98,NNE,21,1.0,4.0,37,0.00,,,0.00,Wunderground v.1.15,2013-04-05 14:25:00,
2013-04-05 10:30:00,48.8,22.3,29.98,ENE,57,1.0,1.0,35,0.00,,,0.00,Wunderground v.1.15,2013-04-05 14:30:00,
2013-04-05 10:40:00,49.5,22.3,29.98,SSW,192,1.0,1.0,34,0.00,,,0.00,Wunderground v.1.15,2013-04-05 14:40:00,
2013-04-05 10:45:00,50.2,22.2,29.98,NNE,29,0.0,2.0,33,0.00,,,0.00,Wunderground v.1.15,2013-04-05 14:45:00,
2013-04-05 10:55:00,51.1,21.5,29.97,North,5,0.0,3.0,31,0.00,,,0.00,Wunderground v.1.15,2013-04-05 14:55:00,
2013-04-05 11:00:00,51.3,20.1,29.97,North,355,0.0,2.0,29,0.00,,,0.00,Wunderground v.1.15,2013-04-05 15:00:00,
2013-04-05 11:10:00,52.0,21.5,29.97,North,355,1.0,1.0,30,0.00,,,0.00,Wunderground v.1.15,2013-04-05 15:10:00,
2013-04-05 11:15:00,52.6,20.4,29.97,East,88,1.0,1.0,28,0.00,,,0.00,Wunderground v.1.15,2013-04-05 15:15:00,
2013-04-05 11:25:00,53.6,20.4,29.97,North,349,0.0,4.0,27,0.00,,,0.00,Wunderground v.1.15,2013-04-05 15:25:00,
2013-04-05 11:30:00,54.1,21.7,29.97,NNE,14,1.0,1.0,28,0.00,,,0.00,Wunderground v.1.15,2013-04-05 15:30:00,
2013-04-05 11:40:00,54.5,21.2,29.97,North,11,1.0,1.0,27,0.00,,,0.00,Wunderground v.1.15,2013-04-05 15:40:00,
2013-04-05 11:45:00,53.8,20.6,29.97,NE,44,1.0,1.0,27,0.00,,,0.00,Wunderground v.1.15,2013-04-05 15:45:00,
2013-04-05 11:55:00,53.3,21.8,29.98,ENE,57,1.0,1.0,29,0.00,,,0.00,Wunderground v.1.15,2013-04-05 15:55:00,
2013-04-05 12:00:00,53.2,21.7,29.98,NE,53,1.0,1.0,29,0.00,,,0.00,Wunderground v.1.15,2013-04-05 16:00:00,
2013-04-05 12:10:00,53.6,22.9,29.98,NE,39,2.0,2.0,30,0.00,,,0.00,Wunderground v.1.15,2013-04-05 16:10:00,
2013-04-05 12:15:00,53.9,22.3,29.98,NNE,20,2.0,2.0,29,0.00,,,0.00,Wunderground v.1.15,2013-04-05 16:15:00,
2013-04-05 12:25:00,54.4,22.8,29.98,NE,37,2.0,3.0,29,0.00,,,0.00,Wunderground v.1.15,2013-04-05 16:25:00,
2013-04-05 12:30:00,54.4,21.1,29.98,ENE,69,2.0,2.0,27,0.00,,,0.00,Wunderground v.1.15,2013-04-05 16:30:00,
2013-04-05 12:40:00,53.9,21.5,29.99,ENE,69,1.0,2.0,28,0.00,,,0.00,Wunderground v.1.15,2013-04-05 16:40:00,
2013-04-05 12:45:00,54.2,25.7,29.99,NE,42,1.0,2.0,33,0.00,,,0.00,Wunderground v.1.15,2013-04-05 16:45:00,
2013-04-05 12:55:00,55.3,23.5,29.98,ENE,70,1.0,2.0,29,0.00,,,0.00,Wunderground v.1.15,2013-04-05 16:55:00,
2013-04-05 13:00:00,54.7,26.1,29.98,NNE,27,2.0,3.0,33,0.00,,,0.00,Wunderground v.1.15,2013-04-05 17:00:00,
2013-04-05 13:10:00,55.1,25.0,29.99,East,86,2.0,2.0,31,0.00,,,0.00,Wunderground v.1.15,2013-04-05 17:10:00,
2013-04-05 13:15:00,55.0,26.4,29.99,North,351,2.0,4.0,33,0.00,,,0.00,Wunderground v.1.15,2013-04-05 17:15:00,
2013-04-05 13:25:00,54.5,28.7,29.99,West,261,2.0,3.0,37,0.00,,,0.00,Wunderground v.1.15,2013-04-05 17:25:00,
2013-04-05 13:30:00,54.7,28.9,29.99,WSW,244,2.0,2.0,37,0.00,,,0.00,Wunderground v.1.15,2013-04-05 17:30:00,
2013-04-05 13:40:00,56.0,29.4,29.98,NE,36,1.0,1.0,36,0.00,,,0.00,Wunderground v.1.15,2013-04-05 17:40:00,
2013-04-05 13:45:00,55.7,31.1,29.98,WSW,241,1.0,2.0,39,0.00,,,0.00,Wunderground v.1.15,2013-04-05 17:45:00,
2013-04-05 13:55:00,56.2,29.6,29.98,North,5,1.0,2.0,36,0.00,,,0.00,Wunderground v.1.15,2013-04-05 17:55:00,
2013-04-05 14:00:00,56.0,29.4,29.98,NNE,19,2.0,4.0,36,0.00,,,0.00,Wunderground v.1.15,2013-04-05 18:00:00,
2013-04-05 14:10:00,55.7,31.1,29.98,NE,42,2.0,2.0,39,0.00,,,0.00,Wunderground v.1.15,2013-04-05 18:10:00,
2013-04-05 14:15:00,56.3,31.0,29.98,NE,36,2.0,2.0,38,0.00,,,0.00,Wunderground v.1.15,2013-04-05 18:15:00,
2013-04-05 14:25:00,57.0,32.3,29.97,East,86,2.0,5.0,39,0.00,,,0.00,Wunderground v.1.15,2013-04-05 18:25:00,
2013-04-05 14:30:00,56.7,29.3,29.97,NE,35,2.0,3.0,35,0.00,,,0.00,Wunderground v.1.15,2013-04-05 18:30:00,
2013-04-05 14:40:00,55.0,29.2,29.97,NE,34,3.0,3.0,37,0.00,,,0.00,Wunderground v.1.15,2013-04-05 18:40:00,
2013-04-05 14:45:00,55.7,31.1,29.97,ENE,67,2.0,3.0,39,0.00,,,0.00,Wunderground v.1.15,2013-04-05 18:45:00,
2013-04-05 14:55:00,56.7,31.4,29.97,NE,36,2.0,4.0,38,0.00,,,0.00,Wunderground v.1.15,2013-04-05 18:55:00,
2013-04-05 15:00:00,56.2,31.5,29.97,North,355,2.0,4.0,39,0.00,,,0.00,Wunderground v.1.15,2013-04-05 19:00:00,
2013-04-05 15:10:00,55.6,29.0,29.97,North,355,1.0,1.0,36,0.00,,,0.00,Wunderground v.1.15,2013-04-05 19:10:00,
2013-04-05 15:15:00,55.9,31.3,29.97,West,259,2.0,2.0,39,0.00,,,0.00,Wunderground v.1.15,2013-04-05 19:15:00,
2013-04-05 15:25:00,56.6,27.0,29.97,NE,51,2.0,5.0,32,0.00,,,0.00,Wunderground v.1.15,2013-04-05 19:25:00,
2013-04-05 15:30:00,55.1,29.3,29.97,North,9,2.0,3.0,37,0.00,,,0.00,Wunderground v.1.15,2013-04-05 19:30:00,
2013-04-05 15:40:00,55.3,25.9,29.97,NE,51,2.0,2.0,32,0.00,,,0.00,Wunderground v.1.15,2013-04-05 19:40:00,
2013-04-05 15:45:00,55.9,27.9,29.97,East,86,2.0,3.0,34,0.00,,,0.00,Wunderground v.1.15,2013-04-05 19:45:00,
2013-04-05 15:55:00,57.0,27.4,29.98,SW,232,1.0,2.0,32,0.00,,,0.00,Wunderground v.1.15,2013-04-05 19:55:00,
2013-04-05 16:00:00,57.5,25.5,29.98,ENE,71,1.0,1.0,29,0.00,,,0.00,Wunderground v.1.15,2013-04-05 20:00:00,
2013-04-05 16:10:00,57.0,26.6,29.97,East,84,2.0,2.0,31,0.00,,,0.00,Wunderground v.1.15,2013-04-05 20:10:00,
2013-04-05 16:15:00,56.6,24.7,29.97,NE,40,2.0,2.0,29,0.00,,,0.00,Wunderground v.1.15,2013-04-05 20:15:00,
2013-04-05 16:25:00,56.3,23.6,29.98,NE,42,1.0,2.0,28,0.00,,,0.00,Wunderground v.1.15,2013-04-05 20:25:00,
2013-04-05 16:30:00,56.2,21.7,29.98,East,82,2.0,2.0,26,0.00,,,0.00,Wunderground v.1.15,2013-04-05 20:30:00,
2013-04-05 16:40:00,55.9,21.5,29.97,NNW,347,2.0,2.0,26,0.00,,,0.00,Wunderground v.1.15,2013-04-05 20:40:00,
2013-04-05 16:45:00,55.9,19.6,29.97,NE,55,2.0,2.0,24,0.00,,,0.00,Wunderground v.1.15,2013-04-05 20:45:00,
2013-04-05 16:55:00,55.3,22.7,29.97,NE,37,3.0,4.0,28,0.00,,,0.00,Wunderground v.1.15,2013-04-05 20:55:00,
2013-04-05 17:00:00,55.7,21.3,29.97,WNW,290,2.0,2.0,26,0.00,,,0.00,Wunderground v.1.15,2013-04-05 21:00:00,
2013-04-05 17:10:00,55.9,20.5,29.98,NE,52,1.0,2.0,25,0.00,,,0.00,Wunderground v.1.15,2013-04-05 21:10:00,
2013-04-05 17:15:00,55.6,19.3,29.98,NE,42,1.0,2.0,24,0.00,,,0.00,Wunderground v.1.15,2013-04-05 21:15:00,
2013-04-05 17:25:00,55.1,21.7,29.98,West,278,2.0,2.0,27,0.00,,,0.00,Wunderground v.1.15,2013-04-05 21:25:00,
2013-04-05 17:30:00,55.0,21.6,29.98,NE,49,2.0,2.0,27,0.00,,,0.00,Wunderground v.1.15,2013-04-05 21:30:00,
2013-04-05 17:40:00,54.1,21.7,29.99,North,360,2.0,2.0,28,0.00,,,0.00,Wunderground v.1.15,2013-04-05 21:40:00,
2013-04-05 17:55:00,53.6,22.1,30.00,North,355,1.0,3.0,29,0.00,,,0.00,Wunderground v.1.15,2013-04-05 21:55:00,
2013-04-05 18:00:00,53.2,21.7,30.00,NW,305,2.0,2.0,29,0.00,,,0.00,Wunderground v.1.15,2013-04-05 22:00:00,
2013-04-05 18:05:00,52.9,19.8,30.00,North,11,1.0,2.0,27,0.00,,,0.00,Wunderground v.1.15,2013-04-05 22:05:00,
2013-04-05 18:15:00,52.5,20.3,30.00,ENE,74,1.0,2.0,28,0.00,,,0.00,Wunderground v.1.15,2013-04-05 22:15:00,
2013-04-05 18:25:00,51.9,22.2,30.00,NE,45,2.0,3.0,31,0.00,,,0.00,Wunderground v.1.15,2013-04-05 22:25:00,
2013-04-05 18:30:00,51.6,23.4,30.00,NE,54,1.0,1.0,33,0.00,,,0.00,Wunderground v.1.15,2013-04-05 22:30:00,
2013-04-05 18:40:00,50.8,20.4,30.01,NNE,15,2.0,2.0,30,0.00,,,0.00,Wunderground v.1.15,2013-04-05 22:40:00,
2013-04-05 18:45:00,50.5,20.2,30.01,NE,36,1.0,2.0,30,0.00,,,0.00,Wunderground v.1.15,2013-04-05 22:45:00,
2013-04-05 19:00:00,49.8,21.8,30.02,North,355,1.0,1.0,33,0.00,,,0.00,Wunderground v.1.15,2013-04-05 23:00:00,
2013-04-05 19:10:00,49.2,22.0,30.02,East,85,1.0,1.0,34,0.00,,,0.00,Wunderground v.1.15,2013-04-05 23:10:00,
2013-04-05 19:15:00,48.6,21.5,30.02,NNE,31,1.0,1.0,34,0.00,,,0.00,Wunderground v.1.15,2013-04-05 23:15:00,
2013-04-05 19:25:00,48.0,21.6,30.02,NNE,28,2.0,2.0,35,0.00,,,0.00,Wunderground v.1.15,2013-04-05 23:25:00,
2013-04-05 19:30:00,47.6,21.9,30.02,NNE,19,2.0,2.0,36,0.00,,,0.00,Wunderground v.1.15,2013-04-05 23:30:00,
2013-04-05 19:40:00,46.8,21.9,30.03,NNE,28,1.0,1.0,37,0.00,,,0.00,Wunderground v.1.15,2013-04-05 23:40:00,
2013-04-05 19:45:00,46.5,22.2,30.03,NE,51,1.0,2.0,38,0.00,,,0.00,Wunderground v.1.15,2013-04-05 23:45:00,
2013-04-05 19:55:00,46.0,21.8,30.03,NNE,19,1.0,1.0,38,0.00,,,0.00,Wunderground v.1.15,2013-04-05 23:55:00,
2013-04-05 20:00:00,45.7,22.1,30.03,NE,37,1.0,1.0,39,0.00,,,0.00,Wunderground v.1.15,2013-04-06 00:00:00,
2013-04-05 20:10:00,44.9,20.8,30.04,NNE,33,1.0,2.0,38,0.00,,,0.00,Wunderground v.1.15,2013-04-06 00:10:00,
2013-04-05 20:15:00,44.6,20.5,30.04,NNE,33,1.0,2.0,38,0.00,,,0.00,Wunderground v.1.15,2013-04-06 00:15:00,
2013-04-05 20:25:00,44.1,20.1,30.05,NE,41,0.0,0.0,38,0.00,,,0.00,Wunderground v.1.15,2013-04-06 00:25:00,
2013-04-05 20:30:00,43.8,20.4,30.05,NE,37,0.0,0.0,39,0.00,,,0.00,Wunderground v.1.15,2013-04-06 00:30:00,
2013-04-05 20:40:00,43.2,18.6,30.05,NE,35,0.0,0.0,37,0.00,,,0.00,Wunderground v.1.15,2013-04-06 00:40:00,
2013-04-05 20:45:00,42.9,18.4,30.05,NE,35,0.0,0.0,37,0.00,,,0.00,Wunderground v.1.15,2013-04-06 00:45:00,
2013-04-05 21:00:00,42.2,17.1,30.07,NE,35,0.0,0.0,36,0.00,,,0.00,Wunderground v.1.15,2013-04-06 01:00:00,
2013-04-05 21:10:00,41.6,17.2,30.07,NE,35,0.0,0.0,37,0.00,,,0.00,Wunderground v.1.15,2013-04-06 01:10:00,
2013-04-05 21:15:00,41.5,17.7,30.07,NE,35,0.0,1.0,38,0.00,,,0.00,Wunderground v.1.15,2013-04-06 01:15:00,
2013-04-05 21:25:00,40.9,17.2,30.08,NE,35,0.0,0.0,38,0.00,,,0.00,Wunderground v.1.15,2013-04-06 01:25:00,
2013-04-05 21:30:00,40.6,17.5,30.08,NE,35,0.0,0.0,39,0.00,,,0.00,Wunderground v.1.15,2013-04-06 01:30:00,
2013-04-05 21:40:00,40.5,17.5,30.09,NE,42,0.0,0.0,39,0.00,,,0.00,Wunderground v.1.15,2013-04-06 01:40:00,
2013-04-05 21:45:00,40.3,17.3,30.09,NE,42,0.0,0.0,39,0.00,,,0.00,Wunderground v.1.15,2013-04-06 01:45:00,
2013-04-05 21:55:00,40.1,17.7,30.10,NE,42,0.0,0.0,40,0.00,,,0.00,Wunderground v.1.15,2013-04-06 01:55:00,
2013-04-05 22:00:00,39.9,17.5,30.10,NE,42,0.0,0.0,40,0.00,,,0.00,Wunderground v.1.15,2013-04-06 02:00:00,
2013-04-05 22:10:00,39.8,17.4,30.10,NE,42,0.0,0.0,40,0.00,,,0.00,Wunderground v.1.15,2013-04-06 02:10:00,
2013-04-05 22:15:00,39.6,17.8,30.10,NE,42,0.0,0.0,41,0.00,,,0.00,Wunderground v.1.15,2013-04-06 02:15:00,
2013-04-05 22:25:00,39.2,17.4,30.11,NE,42,0.0,0.0,41,0.00,,,0.00,Wunderground v.1.15,2013-04-06 02:25:00,
2013-04-05 22:30:00,39.1,17.9,30.11,NE,42,0.0,0.0,42,0.00,,,0.00,Wunderground v.1.15,2013-04-06 02:30:00,
2013-04-05 22:40:00,38.8,18.2,30.12,NE,42,0.0,0.0,43,0.00,,,0.00,Wunderground v.1.15,2013-04-06 02:40:00,
2013-04-05 22:45:00,38.5,17.9,30.12,NE,42,0.0,0.0,43,0.00,,,0.00,Wunderground v.1.15,2013-04-06 02:45:00,
2013-04-05 22:55:00,38.2,18.2,30.12,NE,42,0.0,0.0,44,0.00,,,0.00,Wunderground v.1.15,2013-04-06 02:55:00,
2013-04-05 23:00:00,37.9,17.9,30.12,NE,42,0.0,0.0,44,0.00,,,0.00,Wunderground v.1.15,2013-04-06 03:00:00,
2013-04-05 23:10:00,37.8,18.8,30.12,NE,42,0.0,0.0,46,0.00,,,0.00,Wunderground v.1.15,2013-04-06 03:10:00,
2013-04-05 23:15:00,37.6,18.7,30.12,NE,42,0.0,0.0,46,0.00,,,0.00,Wunderground v.1.15,2013-04-06 03:15:00,
2013-04-05 23:25:00,37.5,18.6,30.11,NE,42,0.0,0.0,46,0.00,,,0.00,Wunderground v.1.15,2013-04-06 03:25:00,
2013-04-05 23:30:00,37.5,19.1,30.11,NE,42,0.0,0.0,47,0.00,,,0.00,Wunderground v.1.15,2013-04-06 03:30:00,
2013-04-05 23:40:00,37.0,19.1,30.12,NE,42,0.0,0.0,48,0.00,,,0.00,Wunderground v.1.15,2013-04-06 03:40:00,
2013-04-05 23:45:00,36.9,19.0,30.12,NE,42,0.0,0.0,48,0.00,,,0.00,Wunderground v.1.15,2013-04-06 03:45:00,
2013-04-05 23:55:00,36.6,19.2,30.13,NE,45,0.0,2.0,49,0.00,,,0.00,Wunderground v.1.15,2013-04-06 03:55:00,